sensor_id;sensor_type;location;lat;lon;timestamp;pressure;altitude;pressure_sealevel;temperature;humidity
38620;BME280;24376;51.986;4.662;2022-09-27T00:00:35;103568.50;;;9.89;100.00
38620;BME280;24376;51.986;4.662;2022-09-27T00:03:21;103562.84;;;9.82;100.00
38620;BME280;24376;51.986;4.662;2022-09-27T00:05:46;103584.47;;;9.80;100.00
38620;BME280;24376;51.986;4.662;2022-09-27T00:08:11;103567.38;;;9.73;100.00
38620;BME280;24376;51.986;4.662;2022-09-27T00:10:36;103570.34;;;9.66;100.00
38620;BME280;24376;51.986;4.662;2022-09-27T00:13:01;103570.72;;;9.59;100.00
38620;BME280;24376;51.986;4.662;2022-09-27T00:15:27;103559.69;;;9.40;100.00
38620;BME280;24376;51.986;4.662;2022-09-27T00:17:52;103571.84;;;9.39;100.00
38620;BME280;24376;51.986;4.662;2022-09-27T00:20:18;103605.28;;;9.31;100.00
38620;BME280;24376;51.986;4.662;2022-09-27T00:22:44;103628.81;;;9.31;100.00
38620;BME280;24376;51.986;4.662;2022-09-27T00:25:10;103617.88;;;9.25;100.00
38620;BME280;24376;51.986;4.662;2022-09-27T00:27:35;103634.91;;;9.20;100.00
38620;BME280;24376;51.986;4.662;2022-09-27T00:30:00;103624.53;;;9.10;100.00
38620;BME280;24376;51.986;4.662;2022-09-27T00:32:25;103617.72;;;9.00;100.00
38620;BME280;24376;51.986;4.662;2022-09-27T00:34:50;103628.38;;;8.92;100.00
38620;BME280;24376;51.986;4.662;2022-09-27T00:37:16;103625.59;;;8.78;100.00
38620;BME280;24376;51.986;4.662;2022-09-27T00:39:41;103647.03;;;8.74;100.00
38620;BME280;24376;51.986;4.662;2022-09-27T00:42:10;103648.84;;;8.75;100.00
38620;BME280;24376;51.986;4.662;2022-09-27T00:52:03;103726.41;;;9.54;100.00
38620;BME280;24376;51.986;4.662;2022-09-27T00:54:31;103708.47;;;9.58;97.41
38620;BME280;24376;51.986;4.662;2022-09-27T00:56:58;103653.63;;;9.60;100.00
38620;BME280;24376;51.986;4.662;2022-09-27T00:59:33;103632.03;;;9.51;100.00
38620;BME280;24376;51.986;4.662;2022-09-27T01:01:59;103621.88;;;9.44;100.00
38620;BME280;24376;51.986;4.662;2022-09-27T01:04:25;103633.13;;;9.43;100.00
38620;BME280;24376;51.986;4.662;2022-09-27T01:06:51;103584.81;;;9.38;100.00
38620;BME280;24376;51.986;4.662;2022-09-27T01:09:17;103577.88;;;9.26;100.00
38620;BME280;24376;51.986;4.662;2022-09-27T01:11:47;103574.69;;;9.19;100.00
38620;BME280;24376;51.986;4.662;2022-09-27T01:16:43;103581.97;;;9.11;100.00
38620;BME280;24376;51.986;4.662;2022-09-27T01:21:47;103618.78;;;9.14;100.00
38620;BME280;24376;51.986;4.662;2022-09-27T01:26:53;103618.56;;;9.11;100.00
38620;BME280;24376;51.986;4.662;2022-09-27T01:29:27;103645.38;;;9.20;100.00
38620;BME280;24376;51.986;4.662;2022-09-27T01:32:02;103652.19;;;9.18;100.00
38620;BME280;24376;51.986;4.662;2022-09-27T01:37:05;103671.84;;;9.13;100.00
38620;BME280;24376;51.986;4.662;2022-09-27T01:42:02;103700.97;;;9.18;100.00
38620;BME280;24376;51.986;4.662;2022-09-27T01:44:36;103708.44;;;9.13;100.00
38620;BME280;24376;51.986;4.662;2022-09-27T01:47:04;103720.34;;;9.10;98.12
38620;BME280;24376;51.986;4.662;2022-09-27T01:49:37;103750.81;;;9.09;94.17
38620;BME280;24376;51.986;4.662;2022-09-27T01:52:04;103750.97;;;9.11;93.88
38620;BME280;24376;51.986;4.662;2022-09-27T01:54:40;103776.97;;;9.09;89.84
38620;BME280;24376;51.986;4.662;2022-09-27T01:57:07;103771.81;;;8.99;91.72
38620;BME280;24376;51.986;4.662;2022-09-27T01:59:39;103777.47;;;8.93;90.88
38620;BME280;24376;51.986;4.662;2022-09-27T02:02:08;103797.19;;;8.90;89.54
38620;BME280;24376;51.986;4.662;2022-09-27T02:04:34;103813.19;;;8.83;85.93
38620;BME280;24376;51.986;4.662;2022-09-27T02:07:04;103808.22;;;8.75;87.10
38620;BME280;24376;51.986;4.662;2022-09-27T02:10:06;103833.28;;;8.84;85.53
38620;BME280;24376;51.986;4.662;2022-09-27T02:12:25;103870.94;;;8.75;84.95
38620;BME280;24376;51.986;4.662;2022-09-27T02:14:52;103847.72;;;8.68;83.53
38620;BME280;24376;51.986;4.662;2022-09-27T02:17:21;103838.59;;;8.63;82.30
38620;BME280;24376;51.986;4.662;2022-09-27T02:22:35;103860.94;;;8.60;79.49
38620;BME280;24376;51.986;4.662;2022-09-27T02:27:31;103856.84;;;8.73;79.52
38620;BME280;24376;51.986;4.662;2022-09-27T02:30:02;103866.06;;;8.90;77.90
38620;BME280;24376;51.986;4.662;2022-09-27T02:32:28;103900.88;;;9.11;76.90
38620;BME280;24376;51.986;4.662;2022-09-27T02:34:54;103893.41;;;8.84;77.06
38620;BME280;24376;51.986;4.662;2022-09-27T02:37:21;103759.78;;;8.47;80.04
38620;BME280;24376;51.986;4.662;2022-09-27T02:39:46;103595.22;;;8.69;89.99
38620;BME280;24376;51.986;4.662;2022-09-27T02:42:12;103577.31;;;8.73;87.64
38620;BME280;24376;51.986;4.662;2022-09-27T02:44:37;103551.44;;;8.76;87.69
38620;BME280;24376;51.986;4.662;2022-09-27T02:52:41;103441.00;;;8.79;94.51
38620;BME280;24376;51.986;4.662;2022-09-27T02:55:45;103406.25;;;8.68;100.00
38620;BME280;24376;51.986;4.662;2022-09-27T02:58:10;103392.19;;;8.66;100.00
38620;BME280;24376;51.986;4.662;2022-09-27T03:00:45;103396.94;;;8.60;100.00
38620;BME280;24376;51.986;4.662;2022-09-27T03:03:20;103380.81;;;8.54;100.00
38620;BME280;24376;51.986;4.662;2022-09-27T03:05:49;103375.81;;;8.45;100.00
38620;BME280;24376;51.986;4.662;2022-09-27T03:08:16;103374.88;;;8.45;100.00
38620;BME280;24376;51.986;4.662;2022-09-27T03:10:41;103381.81;;;8.44;100.00
38620;BME280;24376;51.986;4.662;2022-09-27T03:13:06;103396.38;;;8.41;100.00
38620;BME280;24376;51.986;4.662;2022-09-27T03:15:31;103401.59;;;8.41;100.00
38620;BME280;24376;51.986;4.662;2022-09-27T03:17:57;103405.09;;;8.41;100.00
38620;BME280;24376;51.986;4.662;2022-09-27T03:20:22;103392.59;;;8.37;100.00
38620;BME280;24376;51.986;4.662;2022-09-27T03:22:47;103401.06;;;8.35;100.00
38620;BME280;24376;51.986;4.662;2022-09-27T03:25:12;103447.47;;;8.27;100.00
38620;BME280;24376;51.986;4.662;2022-09-27T03:27:38;103397.06;;;8.16;100.00
38620;BME280;24376;51.986;4.662;2022-09-27T03:30:03;103415.91;;;8.12;100.00
38620;BME280;24376;51.986;4.662;2022-09-27T03:32:30;103447.91;;;8.21;100.00
38620;BME280;24376;51.986;4.662;2022-09-27T03:34:55;103466.22;;;8.33;100.00
38620;BME280;24376;51.986;4.662;2022-09-27T03:37:20;103485.03;;;8.51;100.00
38620;BME280;24376;51.986;4.662;2022-09-27T03:39:46;103503.56;;;8.54;100.00
38620;BME280;24376;51.986;4.662;2022-09-27T03:42:11;103505.16;;;8.64;100.00
38620;BME280;24376;51.986;4.662;2022-09-27T03:44:36;103528.47;;;8.72;96.25
38620;BME280;24376;51.986;4.662;2022-09-27T03:47:01;103521.78;;;8.76;97.29
38620;BME280;24376;51.986;4.662;2022-09-27T03:49:26;103521.34;;;8.82;90.52
38620;BME280;24376;51.986;4.662;2022-09-27T03:51:52;103570.56;;;8.87;91.73
38620;BME280;24376;51.986;4.662;2022-09-27T03:54:17;103586.25;;;8.99;89.49
38620;BME280;24376;51.986;4.662;2022-09-27T03:56:42;103732.03;;;9.03;80.75
38620;BME280;24376;51.986;4.662;2022-09-27T03:59:07;103633.41;;;9.00;86.03
38620;BME280;24376;51.986;4.662;2022-09-27T04:01:32;103639.44;;;8.99;82.46
38620;BME280;24376;51.986;4.662;2022-09-27T04:03:59;103602.41;;;8.71;84.27
38620;BME280;24376;51.986;4.662;2022-09-27T04:06:25;103562.03;;;8.56;86.58
38620;BME280;24376;51.986;4.662;2022-09-27T04:08:51;103608.72;;;8.63;82.06
38620;BME280;24376;51.986;4.662;2022-09-27T04:11:16;103561.06;;;8.66;84.14
38620;BME280;24376;51.986;4.662;2022-09-27T04:13:41;103555.03;;;8.67;83.97
38620;BME280;24376;51.986;4.662;2022-09-27T04:16:08;103575.25;;;8.69;83.63
38620;BME280;24376;51.986;4.662;2022-09-27T04:18:33;103597.19;;;8.71;81.84
38620;BME280;24376;51.986;4.662;2022-09-27T04:20:59;103621.41;;;8.80;81.02
38620;BME280;24376;51.986;4.662;2022-09-27T04:23:24;103624.81;;;8.79;80.68
38620;BME280;24376;51.986;4.662;2022-09-27T04:25:49;103586.88;;;8.85;80.29
38620;BME280;24376;51.986;4.662;2022-09-27T04:28:14;103593.72;;;8.83;79.66
38620;BME280;24376;51.986;4.662;2022-09-27T04:30:39;103590.03;;;8.80;79.83
38620;BME280;24376;51.986;4.662;2022-09-27T04:33:05;103584.06;;;8.82;79.77
38620;BME280;24376;51.986;4.662;2022-09-27T04:35:30;103600.28;;;8.77;78.47
38620;BME280;24376;51.986;4.662;2022-09-27T04:38:13;103562.66;;;8.75;79.45
38620;BME280;24376;51.986;4.662;2022-09-27T04:40:39;103572.88;;;8.72;78.78
38620;BME280;24376;51.986;4.662;2022-09-27T04:43:04;103600.72;;;8.72;77.24
38620;BME280;24376;51.986;4.662;2022-09-27T04:45:29;103549.13;;;8.69;84.48
38620;BME280;24376;51.986;4.662;2022-09-27T04:47:54;103599.81;;;8.71;77.88
38620;BME280;24376;51.986;4.662;2022-09-27T04:50:20;103594.56;;;8.71;77.37
38620;BME280;24376;51.986;4.662;2022-09-27T04:52:51;103599.13;;;8.74;76.79
38620;BME280;24376;51.986;4.662;2022-09-27T04:55:16;103583.00;;;8.79;76.92
38620;BME280;24376;51.986;4.662;2022-09-27T04:57:42;103580.06;;;8.87;76.80
38620;BME280;24376;51.986;4.662;2022-09-27T05:00:07;103585.28;;;8.87;76.13
38620;BME280;24376;51.986;4.662;2022-09-27T05:02:32;103591.44;;;8.87;75.75
38620;BME280;24376;51.986;4.662;2022-09-27T05:04:58;103597.25;;;8.95;75.06
38620;BME280;24376;51.986;4.662;2022-09-27T05:07:24;103600.44;;;9.02;74.81
38620;BME280;24376;51.986;4.662;2022-09-27T05:09:49;103608.19;;;9.01;74.79
38620;BME280;24376;51.986;4.662;2022-09-27T05:12:15;103606.84;;;9.06;74.07
38620;BME280;24376;51.986;4.662;2022-09-27T05:14:40;103610.56;;;9.10;74.08
38620;BME280;24376;51.986;4.662;2022-09-27T05:17:05;103618.41;;;9.10;73.67
38620;BME280;24376;51.986;4.662;2022-09-27T05:19:32;103632.72;;;9.03;73.29
38620;BME280;24376;51.986;4.662;2022-09-27T05:21:57;103544.88;;;8.82;74.88
38620;BME280;24376;51.986;4.662;2022-09-27T05:24:22;103428.31;;;8.84;78.11
38620;BME280;24376;51.986;4.662;2022-09-27T05:26:48;103405.34;;;8.91;78.56
38620;BME280;24376;51.986;4.662;2022-09-27T05:29:13;103396.13;;;8.96;78.67
38620;BME280;24376;51.986;4.662;2022-09-27T05:31:38;103421.47;;;8.97;77.90
38620;BME280;24376;51.986;4.662;2022-09-27T05:34:04;103415.78;;;9.03;78.01
38620;BME280;24376;51.986;4.662;2022-09-27T05:36:29;103406.25;;;9.03;77.58
38620;BME280;24376;51.986;4.662;2022-09-27T05:38:54;103419.22;;;9.02;77.31
38620;BME280;24376;51.986;4.662;2022-09-27T05:41:20;103399.44;;;8.94;78.36
38620;BME280;24376;51.986;4.662;2022-09-27T05:43:45;103363.78;;;8.94;79.80
38620;BME280;24376;51.986;4.662;2022-09-27T05:46:11;103347.84;;;8.91;81.11
38620;BME280;24376;51.986;4.662;2022-09-27T05:48:36;103346.94;;;8.91;81.11
38620;BME280;24376;51.986;4.662;2022-09-27T05:51:01;103314.50;;;8.87;83.62
38620;BME280;24376;51.986;4.662;2022-09-27T05:53:26;103272.97;;;8.92;86.84
38620;BME280;24376;51.986;4.662;2022-09-27T05:55:52;103277.66;;;8.96;87.93
38620;BME280;24376;51.986;4.662;2022-09-27T05:58:17;103250.59;;;8.95;89.29
38620;BME280;24376;51.986;4.662;2022-09-27T06:00:42;103253.13;;;8.94;87.67
38620;BME280;24376;51.986;4.662;2022-09-27T06:03:08;103269.00;;;8.97;86.23
38620;BME280;24376;51.986;4.662;2022-09-27T06:05:36;103263.88;;;8.98;87.08
38620;BME280;24376;51.986;4.662;2022-09-27T06:08:02;103249.91;;;8.98;91.61
38620;BME280;24376;51.986;4.662;2022-09-27T06:10:28;103272.75;;;9.00;86.52
38620;BME280;24376;51.986;4.662;2022-09-27T06:13:00;103289.44;;;9.02;84.59
38620;BME280;24376;51.986;4.662;2022-09-27T06:15:26;103307.84;;;9.04;82.97
38620;BME280;24376;51.986;4.662;2022-09-27T06:17:52;103322.13;;;9.09;82.10
38620;BME280;24376;51.986;4.662;2022-09-27T06:20:17;103330.22;;;9.12;81.37
38620;BME280;24376;51.986;4.662;2022-09-27T06:22:42;103332.13;;;9.15;81.61
38620;BME280;24376;51.986;4.662;2022-09-27T06:25:08;103340.66;;;9.12;80.79
38620;BME280;24376;51.986;4.662;2022-09-27T06:27:33;103361.69;;;9.14;79.15
38620;BME280;24376;51.986;4.662;2022-09-27T06:29:58;103373.28;;;9.17;78.75
38620;BME280;24376;51.986;4.662;2022-09-27T06:32:24;103375.00;;;9.17;78.14
38620;BME280;24376;51.986;4.662;2022-09-27T06:34:49;103380.31;;;9.18;78.12
38620;BME280;24376;51.986;4.662;2022-09-27T06:37:14;103398.63;;;9.18;76.86
38620;BME280;24376;51.986;4.662;2022-09-27T06:39:39;103393.41;;;9.18;76.73
38620;BME280;24376;51.986;4.662;2022-09-27T06:42:05;103406.00;;;9.24;75.92
38620;BME280;24376;51.986;4.662;2022-09-27T06:44:31;103423.28;;;9.33;75.15
38620;BME280;24376;51.986;4.662;2022-09-27T06:46:56;103404.81;;;9.44;75.26
38620;BME280;24376;51.986;4.662;2022-09-27T06:49:21;103413.78;;;9.47;75.10
38620;BME280;24376;51.986;4.662;2022-09-27T06:51:47;103427.66;;;9.58;74.35
38620;BME280;24376;51.986;4.662;2022-09-27T06:54:12;103461.31;;;9.53;74.48
38620;BME280;24376;51.986;4.662;2022-09-27T06:56:37;103529.53;;;9.45;74.23
38620;BME280;24376;51.986;4.662;2022-09-27T06:59:03;103501.94;;;9.25;76.34
38620;BME280;24376;51.986;4.662;2022-09-27T07:01:47;103396.19;;;9.33;77.30
38620;BME280;24376;51.986;4.662;2022-09-27T07:04:13;103386.31;;;9.41;76.85
38620;BME280;24376;51.986;4.662;2022-09-27T07:06:40;103384.31;;;9.50;76.74
38620;BME280;24376;51.986;4.662;2022-09-27T07:09:05;103396.63;;;9.51;76.09
38620;BME280;24376;51.986;4.662;2022-09-27T07:11:30;103411.50;;;9.52;75.87
38620;BME280;24376;51.986;4.662;2022-09-27T07:13:59;103427.41;;;9.55;75.55
38620;BME280;24376;51.986;4.662;2022-09-27T07:16:24;103460.97;;;9.49;74.78
38620;BME280;24376;51.986;4.662;2022-09-27T07:18:49;103444.88;;;9.31;75.27
38620;BME280;24376;51.986;4.662;2022-09-27T07:21:14;103389.19;;;9.09;78.40
38620;BME280;24376;51.986;4.662;2022-09-27T07:23:40;103324.25;;;8.90;81.61
38620;BME280;24376;51.986;4.662;2022-09-27T07:26:05;103264.94;;;8.89;86.38
38620;BME280;24376;51.986;4.662;2022-09-27T07:28:32;103224.81;;;9.00;88.01
38620;BME280;24376;51.986;4.662;2022-09-27T07:30:58;103198.41;;;9.09;90.09
38620;BME280;24376;51.986;4.662;2022-09-27T07:33:23;103182.03;;;9.11;93.38
38620;BME280;24376;51.986;4.662;2022-09-27T07:35:48;103133.47;;;9.15;100.00
38620;BME280;24376;51.986;4.662;2022-09-27T07:38:13;103099.16;;;9.10;100.00
38620;BME280;24376;51.986;4.662;2022-09-27T07:40:40;103056.44;;;9.10;100.00
38620;BME280;24376;51.986;4.662;2022-09-27T07:43:05;103008.41;;;9.07;100.00
38620;BME280;24376;51.986;4.662;2022-09-27T07:45:32;102992.13;;;9.12;100.00
38620;BME280;24376;51.986;4.662;2022-09-27T07:47:57;102987.41;;;9.19;100.00
38620;BME280;24376;51.986;4.662;2022-09-27T07:50:22;102992.72;;;9.21;100.00
38620;BME280;24376;51.986;4.662;2022-09-27T07:52:48;102995.06;;;9.29;100.00
38620;BME280;24376;51.986;4.662;2022-09-27T07:55:16;103003.78;;;9.43;100.00
38620;BME280;24376;51.986;4.662;2022-09-27T07:57:42;103021.00;;;9.53;100.00
38620;BME280;24376;51.986;4.662;2022-09-27T08:00:27;103042.13;;;9.69;100.00
38620;BME280;24376;51.986;4.662;2022-09-27T08:02:53;103073.59;;;9.84;100.00
38620;BME280;24376;51.986;4.662;2022-09-27T08:05:18;103082.53;;;10.01;100.00
38620;BME280;24376;51.986;4.662;2022-09-27T08:07:43;103076.47;;;10.15;100.00
38620;BME280;24376;51.986;4.662;2022-09-27T08:10:08;103128.31;;;10.21;98.74
38620;BME280;24376;51.986;4.662;2022-09-27T08:12:34;103105.66;;;10.08;100.00
38620;BME280;24376;51.986;4.662;2022-09-27T08:14:59;103102.97;;;10.06;100.00
38620;BME280;24376;51.986;4.662;2022-09-27T08:17:27;103129.75;;;10.16;99.33
38620;BME280;24376;51.986;4.662;2022-09-27T08:19:52;103113.03;;;10.27;100.00
38620;BME280;24376;51.986;4.662;2022-09-27T08:22:17;103135.84;;;10.43;96.30
38620;BME280;24376;51.986;4.662;2022-09-27T08:24:45;103163.44;;;10.51;92.39
38620;BME280;24376;51.986;4.662;2022-09-27T08:27:10;103170.28;;;10.62;90.44
38620;BME280;24376;51.986;4.662;2022-09-27T08:29:37;103169.03;;;10.70;89.46
38620;BME280;24376;51.986;4.662;2022-09-27T08:32:05;103176.28;;;10.74;88.99
38620;BME280;24376;51.986;4.662;2022-09-27T08:34:30;103149.31;;;10.49;95.62
38620;BME280;24376;51.986;4.662;2022-09-27T08:36:56;103117.50;;;10.43;100.00
38620;BME280;24376;51.986;4.662;2022-09-27T08:39:21;103098.19;;;10.41;100.00
38620;BME280;24376;51.986;4.662;2022-09-27T08:41:51;103090.41;;;10.42;100.00
38620;BME280;24376;51.986;4.662;2022-09-27T08:47:14;103067.63;;;10.26;100.00
38620;BME280;24376;51.986;4.662;2022-09-27T08:49:42;103063.38;;;10.28;100.00
38620;BME280;24376;51.986;4.662;2022-09-27T08:52:12;103092.19;;;10.28;100.00
38620;BME280;24376;51.986;4.662;2022-09-27T08:54:44;103074.34;;;10.23;100.00
38620;BME280;24376;51.986;4.662;2022-09-27T08:57:10;103098.22;;;10.27;100.00
38620;BME280;24376;51.986;4.662;2022-09-27T08:59:40;103085.13;;;10.27;100.00
38620;BME280;24376;51.986;4.662;2022-09-27T09:02:16;103115.53;;;10.38;100.00
38620;BME280;24376;51.986;4.662;2022-09-27T09:04:42;103123.38;;;10.38;99.76
38620;BME280;24376;51.986;4.662;2022-09-27T09:07:15;103121.78;;;10.27;100.00
38620;BME280;24376;51.986;4.662;2022-09-27T09:09:57;103124.00;;;10.34;99.83
38620;BME280;24376;51.986;4.662;2022-09-27T09:15:21;103114.72;;;10.39;99.72
38620;BME280;24376;51.986;4.662;2022-09-27T09:18:09;103084.09;;;10.38;100.00
38620;BME280;24376;51.986;4.662;2022-09-27T09:20:47;103057.28;;;10.43;100.00
38620;BME280;24376;51.986;4.662;2022-09-27T09:33:57;102861.56;;;11.01;100.00
38620;BME280;24376;51.986;4.662;2022-09-27T09:38:51;102806.91;;;11.39;100.00
38620;BME280;24376;51.986;4.662;2022-09-27T09:41:21;103169.97;;;11.28;77.88
38620;BME280;24376;51.986;4.662;2022-09-27T09:43:50;103209.31;;;11.13;76.23
38620;BME280;24376;51.986;4.662;2022-09-27T09:51:34;103053.25;;;11.20;83.03
38620;BME280;24376;51.986;4.662;2022-09-27T09:54:07;103046.91;;;11.16;84.32
38620;BME280;24376;51.986;4.662;2022-09-27T09:57:00;103032.44;;;10.93;88.17
38620;BME280;24376;51.986;4.662;2022-09-27T09:59:27;102974.31;;;10.86;97.06
38620;BME280;24376;51.986;4.662;2022-09-27T10:01:55;102974.69;;;10.92;100.00
38620;BME280;24376;51.986;4.662;2022-09-27T10:04:23;102993.38;;;10.83;100.00
38620;BME280;24376;51.986;4.662;2022-09-27T10:06:50;102974.13;;;10.68;100.00
38620;BME280;24376;51.986;4.662;2022-09-27T10:09:16;102969.59;;;10.65;100.00
38620;BME280;24376;51.986;4.662;2022-09-27T10:11:44;102977.91;;;10.58;100.00
38620;BME280;24376;51.986;4.662;2022-09-27T10:14:11;102999.66;;;10.43;100.00
38620;BME280;24376;51.986;4.662;2022-09-27T10:16:36;103032.66;;;10.26;100.00
38620;BME280;24376;51.986;4.662;2022-09-27T10:19:03;103079.47;;;10.21;100.00
38620;BME280;24376;51.986;4.662;2022-09-27T10:21:29;103087.84;;;10.16;100.00
38620;BME280;24376;51.986;4.662;2022-09-27T10:24:02;103128.63;;;10.12;100.00
38620;BME280;24376;51.986;4.662;2022-09-27T10:26:29;103158.34;;;9.99;100.00
38620;BME280;24376;51.986;4.662;2022-09-27T10:28:54;103175.56;;;9.82;100.00
38620;BME280;24376;51.986;4.662;2022-09-27T10:31:19;103200.91;;;9.70;100.00
38620;BME280;24376;51.986;4.662;2022-09-27T10:33:50;103180.44;;;9.51;100.00
38620;BME280;24376;51.986;4.662;2022-09-27T10:36:24;103180.09;;;9.33;100.00
38620;BME280;24376;51.986;4.662;2022-09-27T10:38:51;103215.28;;;9.39;100.00
38620;BME280;24376;51.986;4.662;2022-09-27T10:44:45;103261.34;;;9.37;100.00
38620;BME280;24376;51.986;4.662;2022-09-27T10:46:52;103281.28;;;9.35;100.00
38620;BME280;24376;51.986;4.662;2022-09-27T10:49:34;103319.13;;;9.40;100.00
38620;BME280;24376;51.986;4.662;2022-09-27T10:52:01;103318.88;;;9.37;100.00
38620;BME280;24376;51.986;4.662;2022-09-27T10:54:34;103333.19;;;9.42;100.00
38620;BME280;24376;51.986;4.662;2022-09-27T10:57:03;103336.81;;;9.44;99.91
38620;BME280;24376;51.986;4.662;2022-09-27T10:59:30;103342.94;;;9.44;99.05
38620;BME280;24376;51.986;4.662;2022-09-27T11:01:57;103372.06;;;9.49;92.99
38620;BME280;24376;51.986;4.662;2022-09-27T11:04:28;103378.88;;;9.47;90.58
38620;BME280;24376;51.986;4.662;2022-09-27T11:09:52;103402.03;;;9.66;86.98
38620;BME280;24376;51.986;4.662;2022-09-27T11:12:18;103427.47;;;9.68;84.97
38620;BME280;24376;51.986;4.662;2022-09-27T11:14:53;103414.75;;;9.61;85.36
38620;BME280;24376;51.986;4.662;2022-09-27T11:17:25;103419.06;;;9.72;83.37
38620;BME280;24376;51.986;4.662;2022-09-27T11:22:41;103430.84;;;9.79;82.12
38620;BME280;24376;51.986;4.662;2022-09-27T11:25:14;103424.38;;;9.74;82.03
38620;BME280;24376;51.986;4.662;2022-09-27T11:27:52;103410.97;;;9.81;81.70
38620;BME280;24376;51.986;4.662;2022-09-27T11:30:21;103423.72;;;10.01;79.67
38620;BME280;24376;51.986;4.662;2022-09-27T11:35:25;103412.72;;;10.57;77.48
38620;BME280;24376;51.986;4.662;2022-09-27T11:40:43;103425.25;;;11.14;75.09
38620;BME280;24376;51.986;4.662;2022-09-27T11:43:28;103386.19;;;11.05;75.46
38620;BME280;24376;51.986;4.662;2022-09-27T11:50:59;103230.66;;;11.19;78.14
38620;BME280;24376;51.986;4.662;2022-09-27T11:56:16;103147.47;;;11.46;79.42
38620;BME280;24376;51.986;4.662;2022-09-27T11:58:59;103091.00;;;11.68;81.25
38620;BME280;24376;51.986;4.662;2022-09-27T12:01:48;102989.16;;;11.46;88.30
38620;BME280;24376;51.986;4.662;2022-09-27T12:09:34;102802.00;;;11.78;100.00
38620;BME280;24376;51.986;4.662;2022-09-27T12:12:04;102727.59;;;11.78;100.00
38620;BME280;24376;51.986;4.662;2022-09-27T12:16:56;102506.91;;;11.73;100.00
38620;BME280;24376;51.986;4.662;2022-09-27T12:19:27;102382.78;;;11.93;100.00
38620;BME280;24376;51.986;4.662;2022-09-27T12:21:55;102307.53;;;11.75;100.00
38620;BME280;24376;51.986;4.662;2022-09-27T12:24:22;102214.84;;;12.16;100.00
38620;BME280;24376;51.986;4.662;2022-09-27T12:26:49;102167.25;;;12.51;100.00
38620;BME280;24376;51.986;4.662;2022-09-27T12:29:26;102115.53;;;12.73;100.00
38620;BME280;24376;51.986;4.662;2022-09-27T12:37:14;101833.34;;;12.96;100.00
38620;BME280;24376;51.986;4.662;2022-09-27T12:39:51;101832.69;;;13.03;100.00
38620;BME280;24376;51.986;4.662;2022-09-27T12:42:23;101767.44;;;13.19;100.00
38620;BME280;24376;51.986;4.662;2022-09-27T12:44:49;101676.47;;;13.24;100.00
38620;BME280;24376;51.986;4.662;2022-09-27T12:52:30;101477.13;;;14.22;100.00
38620;BME280;24376;51.986;4.662;2022-09-27T12:55:04;101411.03;;;14.10;100.00
38620;BME280;24376;51.986;4.662;2022-09-27T13:00:17;101113.09;;;13.90;100.00
38620;BME280;24376;51.986;4.662;2022-09-27T13:13:17;100748.47;;;13.45;100.00
38620;BME280;24376;51.986;4.662;2022-09-27T13:15:44;100709.72;;;13.34;100.00
38620;BME280;24376;51.986;4.662;2022-09-27T13:20:50;100613.59;;;12.90;100.00
38620;BME280;24376;51.986;4.662;2022-09-27T13:30:53;100197.41;;;12.73;100.00
38620;BME280;24376;51.986;4.662;2022-09-27T13:41:33;99848.06;;;12.73;100.00
38620;BME280;24376;51.986;4.662;2022-09-27T13:44:07;99721.97;;;12.67;100.00
38620;BME280;24376;51.986;4.662;2022-09-27T13:46:39;99602.06;;;12.50;100.00
38620;BME280;24376;51.986;4.662;2022-09-27T13:49:14;99502.31;;;12.44;100.00
38620;BME280;24376;51.986;4.662;2022-09-27T13:54:33;99365.00;;;12.27;100.00
38620;BME280;24376;51.986;4.662;2022-09-27T13:56:51;99284.44;;;12.38;100.00
38620;BME280;24376;51.986;4.662;2022-09-27T13:59:19;99227.56;;;12.40;100.00
38620;BME280;24376;51.986;4.662;2022-09-27T14:01:51;99181.22;;;12.38;100.00
38620;BME280;24376;51.986;4.662;2022-09-27T14:04:25;99129.41;;;12.60;100.00
38620;BME280;24376;51.986;4.662;2022-09-27T14:06:53;99098.75;;;12.62;100.00
38620;BME280;24376;51.986;4.662;2022-09-27T14:09:30;99075.69;;;12.90;100.00
38620;BME280;24376;51.986;4.662;2022-09-27T14:11:58;98972.38;;;12.89;100.00
38620;BME280;24376;51.986;4.662;2022-09-27T14:14:25;98948.53;;;13.04;100.00
38620;BME280;24376;51.986;4.662;2022-09-27T14:16:51;98944.06;;;13.08;100.00
38620;BME280;24376;51.986;4.662;2022-09-27T14:19:18;98904.09;;;13.45;100.00
38620;BME280;24376;51.986;4.662;2022-09-27T14:21:45;98906.16;;;13.26;100.00
38620;BME280;24376;51.986;4.662;2022-09-27T14:24:27;98864.00;;;13.32;100.00
38620;BME280;24376;51.986;4.662;2022-09-27T14:30:06;98911.94;;;12.89;100.00
38620;BME280;24376;51.986;4.662;2022-09-27T14:32:32;98978.50;;;12.87;100.00
38620;BME280;24376;51.986;4.662;2022-09-27T14:35:10;99048.84;;;12.65;100.00
38620;BME280;24376;51.986;4.662;2022-09-27T14:37:56;99114.59;;;12.52;100.00
38620;BME280;24376;51.986;4.662;2022-09-27T14:40:21;99146.16;;;12.43;100.00
38620;BME280;24376;51.986;4.662;2022-09-27T14:42:46;99206.59;;;12.34;100.00
38620;BME280;24376;51.986;4.662;2022-09-27T14:45:27;99279.25;;;12.35;100.00
38620;BME280;24376;51.986;4.662;2022-09-27T14:47:56;99392.13;;;12.21;100.00
38620;BME280;24376;51.986;4.662;2022-09-27T14:50:24;99546.97;;;12.15;100.00
38620;BME280;24376;51.986;4.662;2022-09-27T14:52:51;99761.13;;;11.75;100.00
38620;BME280;24376;51.986;4.662;2022-09-27T14:55:20;99961.19;;;11.54;100.00
38620;BME280;24376;51.986;4.662;2022-09-27T14:57:48;100147.81;;;11.24;100.00
38620;BME280;24376;51.986;4.662;2022-09-27T15:02:43;100610.47;;;11.05;100.00
38620;BME280;24376;51.986;4.662;2022-09-27T15:05:18;100846.88;;;10.93;100.00
38620;BME280;24376;51.986;4.662;2022-09-27T15:07:44;101088.09;;;11.00;100.00
38620;BME280;24376;51.986;4.662;2022-09-27T15:10:14;101310.16;;;11.07;100.00
38620;BME280;24376;51.986;4.662;2022-09-27T15:12:41;101554.66;;;11.03;100.00